createdAt,value
2023-03-06T00:00:59.051Z,97673.45
2023-03-06T00:03:28.317Z,97668.93
2023-03-06T00:05:59.144Z,97669.79
2023-03-06T00:08:28.472Z,97669.48
2023-03-06T00:11:01.018Z,97666.50
2023-03-06T00:13:35.355Z,97661.94
2023-03-06T00:16:07.269Z,97658.38
2023-03-06T00:18:35.894Z,97653.36
2023-03-06T00:21:11.334Z,97654.67
2023-03-06T00:23:41.556Z,97651.56
2023-03-06T00:26:10.257Z,97649.65
2023-03-06T00:28:39.843Z,97645.36
2023-03-06T00:31:15.622Z,97646.06
2023-03-06T00:33:47.659Z,97642.79
2023-03-06T00:36:16.662Z,97641.67
2023-03-06T00:38:45.342Z,97645.65
2023-03-06T00:41:13.852Z,97646.02
2023-03-06T00:43:42.700Z,97643.13
2023-03-06T00:46:11.330Z,97642.60
2023-03-06T00:48:41.204Z,97644.02
2023-03-06T00:51:13.481Z,97644.59
2023-03-06T00:53:43.795Z,97647.44
2023-03-06T00:56:12.273Z,97643.65
2023-03-06T00:58:41.582Z,97642.54
2023-03-06T01:01:10.076Z,97643.10
2023-03-06T01:03:40.481Z,97631.87
2023-03-06T01:06:10.292Z,97628.92
2023-03-06T01:08:39.284Z,97632.98
2023-03-06T01:11:08.830Z,97634.25
2023-03-06T01:13:37.468Z,97643.98
2023-03-06T01:16:09.190Z,97641.15
2023-03-06T01:18:38.357Z,97647.64
2023-03-06T01:21:06.801Z,97643.41
2023-03-06T01:23:36.827Z,97642.12
2023-03-06T01:26:05.946Z,97648.91
2023-03-06T01:28:35.420Z,97646.52
2023-03-06T01:31:04.420Z,97648.83
2023-03-06T01:33:34.493Z,97656.20
2023-03-06T01:36:08.405Z,97658.25
2023-03-06T01:38:37.842Z,97660.25
2023-03-06T01:41:06.495Z,97658.89
2023-03-06T01:43:36.234Z,97643.42
2023-03-06T01:46:19.783Z,97652.83
2023-03-06T01:48:48.458Z,97655.95
2023-03-06T01:51:16.736Z,97655.54
2023-03-06T01:53:45.317Z,97653.82
2023-03-06T01:56:14.310Z,97661.48
2023-03-06T01:58:44.057Z,97663.20
2023-03-06T02:01:13.483Z,97673.79
2023-03-06T02:03:42.107Z,97673.58
2023-03-06T02:06:13.282Z,97673.02
2023-03-06T02:08:50.246Z,97669.05
2023-03-06T02:11:26.128Z,97675.55
2023-03-06T02:13:55.719Z,97674.79
2023-03-06T02:16:29.229Z,97675.05
2023-03-06T02:19:02.956Z,97674.95
2023-03-06T02:21:36.507Z,97669.73
2023-03-06T02:24:11.880Z,97674.08
2023-03-06T02:26:41.034Z,97675.33
2023-03-06T02:29:12.310Z,97676.77
2023-03-06T02:31:42.516Z,97683.73
2023-03-06T02:34:17.038Z,97684.58
2023-03-06T02:36:49.190Z,97685.14
2023-03-06T02:39:19.001Z,97682.17
2023-03-06T02:41:48.615Z,97689.70
2023-03-06T02:44:17.617Z,97684.41
2023-03-06T02:46:46.128Z,97688.66
2023-03-06T02:49:14.764Z,97692.39
2023-03-06T02:51:44.000Z,97697.77
2023-03-06T02:54:13.590Z,97696.65
2023-03-06T02:56:45.339Z,97698.83
2023-03-06T02:59:14.110Z,97698.65
2023-03-06T03:01:47.952Z,97698.41
2023-03-06T03:04:16.823Z,97700.59
2023-03-06T03:06:45.597Z,97701.91
2023-03-06T03:09:14.294Z,97707.79
2023-03-06T03:11:44.612Z,97708.48
2023-03-06T03:14:13.571Z,97707.51
2023-03-06T03:16:42.086Z,97711.11
2023-03-06T03:19:10.761Z,97714.27
2023-03-06T03:21:40.984Z,97715.40
2023-03-06T03:24:09.575Z,97721.50
2023-03-06T03:26:38.160Z,97724.34
2023-03-06T03:29:11.005Z,97722.72
2023-03-06T03:31:39.630Z,97723.44
2023-03-06T03:34:08.931Z,97729.11
2023-03-06T03:36:40.930Z,97728.70
2023-03-06T03:39:12.143Z,97729.38
2023-03-06T03:41:40.711Z,97731.63
2023-03-06T03:44:10.529Z,97731.60
2023-03-06T03:46:41.716Z,97736.09
2023-03-06T03:49:14.969Z,97735.11
2023-03-06T03:51:44.362Z,97739.45
2023-03-06T03:54:13.083Z,97747.58
2023-03-06T03:56:44.727Z,97751.69
2023-03-06T04:02:21.137Z,97750.53
2023-03-06T04:04:55.072Z,97753.73
2023-03-06T04:07:22.766Z,97750.17
2023-03-06T04:09:50.151Z,97749.21
2023-03-06T04:12:18.604Z,97748.66
2023-03-06T04:14:47.076Z,97748.23
2023-03-06T04:17:14.548Z,97743.40
2023-03-06T04:19:41.691Z,97743.75
2023-03-06T04:22:08.793Z,97752.38
2023-03-06T04:24:37.421Z,97751.33
2023-03-06T04:27:08.150Z,97754.61
2023-03-06T04:29:35.838Z,97757.85
2023-03-06T04:32:03.270Z,97758.80
2023-03-06T04:34:30.521Z,97757.52
2023-03-06T04:37:02.298Z,97760.59
2023-03-06T04:39:30.144Z,97762.30
2023-03-06T04:41:57.540Z,97765.73
2023-03-06T04:44:25.783Z,97771.83
2023-03-06T04:46:53.236Z,97772.95
2023-03-06T04:49:20.403Z,97776.27
2023-03-06T04:51:47.374Z,97781.64
2023-03-06T04:54:14.380Z,97783.24
2023-03-06T04:56:41.525Z,97783.62
2023-03-06T04:59:10.106Z,97786.20
2023-03-06T05:01:37.567Z,97788.59
2023-03-06T05:04:05.531Z,97790.95
2023-03-06T05:06:33.330Z,97791.77
2023-03-06T05:09:00.445Z,97789.48
2023-03-06T05:11:27.619Z,97791.34
2023-03-06T05:13:55.966Z,97800.20
2023-03-06T05:16:23.038Z,97801.11
2023-03-06T05:18:50.739Z,97802.52
2023-03-06T05:21:17.950Z,97805.02
2023-03-06T05:23:45.030Z,97814.64
2023-03-06T05:26:13.066Z,97814.89
2023-03-06T05:28:40.297Z,97822.95
2023-03-06T05:31:08.816Z,97824.10
2023-03-06T05:33:36.027Z,97828.11
2023-03-06T05:36:04.202Z,97830.69
2023-03-06T05:38:31.870Z,97829.99
2023-03-06T05:40:59.014Z,97830.98
2023-03-06T05:43:26.223Z,97837.69
2023-03-06T05:46:01.627Z,97837.86
2023-03-06T05:48:29.074Z,97840.13
2023-03-06T05:50:57.659Z,97839.70
2023-03-06T05:53:26.455Z,97840.82
2023-03-06T05:56:05.029Z,97836.21
2023-03-06T05:58:33.535Z,97839.83
2023-03-06T06:01:00.812Z,97843.70
2023-03-06T06:03:27.985Z,97842.56
2023-03-06T06:05:55.289Z,97842.20
2023-03-06T06:08:22.339Z,97844.35
2023-03-06T06:10:52.192Z,97846.14
2023-03-06T06:13:23.909Z,97845.20
2023-03-06T06:15:57.876Z,97847.46
2023-03-06T06:18:25.109Z,97845.98
2023-03-06T06:20:53.435Z,97847.73
2023-03-06T06:23:21.727Z,97845.20
2023-03-06T06:25:48.773Z,97851.25
2023-03-06T06:28:16.281Z,97853.41
2023-03-06T06:30:44.028Z,97854.07
2023-03-06T06:33:11.761Z,97860.08
2023-03-06T06:35:38.827Z,97862.23
2023-03-06T06:38:07.685Z,97866.01
2023-03-06T06:40:35.483Z,97872.55
2023-03-06T06:43:02.807Z,97864.63
2023-03-06T06:45:30.572Z,97868.29
2023-03-06T06:47:57.688Z,97871.88
2023-03-06T06:50:24.790Z,97871.10
2023-03-06T06:52:52.251Z,97873.65
2023-03-06T06:55:21.318Z,97871.46
2023-03-06T06:57:48.478Z,97877.44
2023-03-06T07:00:17.480Z,97879.04
2023-03-06T07:02:48.709Z,97883.81
2023-03-06T07:05:15.916Z,97878.77
2023-03-06T07:07:44.448Z,97884.02
2023-03-06T07:10:13.746Z,97888.31
2023-03-06T07:12:45.294Z,97881.55
2023-03-06T07:15:14.611Z,97888.39
2023-03-06T07:17:42.252Z,97888.77
2023-03-06T07:20:13.440Z,97890.73
2023-03-06T07:22:50.398Z,97890.46
2023-03-06T07:25:19.080Z,97894.64
2023-03-06T07:27:52.762Z,97897.52
2023-03-06T07:30:22.594Z,97900.30
2023-03-06T07:32:53.526Z,97901.84
2023-03-06T07:35:21.081Z,97901.33
2023-03-06T07:37:48.359Z,97903.23
2023-03-06T07:40:15.892Z,97907.55
2023-03-06T07:42:43.039Z,97911.30
2023-03-06T07:45:12.765Z,97909.58
2023-03-06T07:47:40.729Z,97909.98
2023-03-06T07:50:10.445Z,97907.98
2023-03-06T07:52:39.150Z,97908.77
2023-03-06T07:55:07.595Z,97906.66
2023-03-06T07:57:36.183Z,97911.16
2023-03-06T08:00:05.232Z,97906.70
2023-03-06T08:02:40.753Z,97913.05
2023-03-06T08:05:09.305Z,97908.77
2023-03-06T08:07:36.976Z,97911.95
2023-03-06T08:10:05.137Z,97919.88
2023-03-06T08:12:32.308Z,97918.88
2023-03-06T08:14:59.430Z,97915.21
2023-03-06T08:17:32.011Z,97916.01
2023-03-06T08:19:59.069Z,97920.41
2023-03-06T08:22:26.118Z,97922.20
2023-03-06T08:24:55.920Z,97920.77
2023-03-06T08:27:23.470Z,97925.15
2023-03-06T08:29:51.746Z,97933.49
2023-03-06T08:32:19.005Z,97932.39
2023-03-06T08:34:46.253Z,97932.41
2023-03-06T08:37:16.910Z,97930.75
2023-03-06T08:39:45.135Z,97926.94
2023-03-06T08:42:12.414Z,97926.83
2023-03-06T08:44:39.795Z,97939.72
2023-03-06T08:47:07.130Z,97935.98
2023-03-06T08:49:35.594Z,97940.11
2023-03-06T08:52:03.166Z,97944.33
2023-03-06T08:54:33.990Z,97944.22
2023-03-06T08:57:01.528Z,97945.57
2023-03-06T08:59:28.905Z,97940.48
2023-03-06T09:01:56.151Z,97941.05
2023-03-06T09:04:37.440Z,97939.07
2023-03-06T09:07:05.207Z,97941.41
2023-03-06T09:09:32.560Z,97944.78
2023-03-06T09:12:01.347Z,97942.13
2023-03-06T09:14:28.734Z,97940.58
2023-03-06T09:16:56.126Z,97947.00
2023-03-06T09:19:23.438Z,97943.93
2023-03-06T09:21:51.268Z,97947.45
2023-03-06T09:24:21.259Z,97948.73
2023-03-06T09:26:50.489Z,97952.98
2023-03-06T09:29:18.679Z,97950.52
2023-03-06T09:31:47.887Z,97951.91
2023-03-06T09:34:15.119Z,97955.73
2023-03-06T09:36:55.939Z,97955.56
2023-03-06T09:39:25.408Z,97954.30
2023-03-06T09:41:52.454Z,97957.86
2023-03-06T09:44:25.521Z,97961.02
2023-03-06T09:47:17.591Z,97954.93
2023-03-06T09:50:13.594Z,97957.94
2023-03-06T09:52:43.717Z,97956.33
2023-03-06T09:55:15.080Z,97959.27
2023-03-06T09:57:44.872Z,97958.52
2023-03-06T10:00:16.408Z,97953.14
2023-03-06T10:02:50.065Z,97955.98
2023-03-06T10:05:28.832Z,97952.58
2023-03-06T10:08:11.032Z,97954.41
2023-03-06T10:11:01.639Z,97953.64
2023-03-06T10:13:49.972Z,97959.79
2023-03-06T10:16:30.853Z,97955.02
2023-03-06T10:19:03.490Z,97952.34
2023-03-06T10:21:34.161Z,97952.43
2023-03-06T10:24:25.101Z,97950.94
2023-03-06T10:26:58.173Z,97955.95
2023-03-06T10:29:56.416Z,97952.65
2023-03-06T10:32:46.185Z,97956.95
2023-03-06T10:35:21.238Z,97948.47
2023-03-06T10:37:48.198Z,97945.54
2023-03-06T10:40:17.975Z,97943.92
2023-03-06T10:42:45.764Z,97942.10
2023-03-06T10:45:16.642Z,97939.38
2023-03-06T10:47:44.482Z,97941.13
2023-03-06T10:50:26.014Z,97942.63
2023-03-06T10:53:01.744Z,97941.31
2023-03-06T10:55:34.597Z,97942.23
2023-03-06T10:58:28.888Z,97944.19
2023-03-06T11:01:07.713Z,97944.61
2023-03-06T11:03:36.109Z,97941.32
2023-03-06T11:06:13.487Z,97938.30
2023-03-06T11:08:43.741Z,97939.23
2023-03-06T11:11:18.510Z,97932.36
2023-03-06T11:13:58.162Z,97936.63
2023-03-06T11:16:32.498Z,97926.13
2023-03-06T11:19:06.606Z,97931.96
2023-03-06T11:21:36.028Z,97926.58
2023-03-06T11:24:08.183Z,97937.59
2023-03-06T11:26:40.639Z,97932.80
2023-03-06T11:29:38.531Z,97930.42
2023-03-06T11:32:19.800Z,97929.69
2023-03-06T11:35:15.647Z,97929.32
2023-03-06T11:37:53.536Z,97929.52
2023-03-06T11:40:31.534Z,97928.96
2023-03-06T11:43:04.724Z,97924.04
2023-03-06T11:45:43.719Z,97923.33
2023-03-06T11:48:14.064Z,97927.67
2023-03-06T11:50:48.934Z,97932.75
2023-03-06T11:53:27.811Z,97925.91
2023-03-06T11:56:31.818Z,97928.12
2023-03-06T11:59:24.341Z,97933.48
2023-03-06T12:02:23.314Z,97925.27
2023-03-06T12:05:09.481Z,97929.42
2023-03-06T12:08:16.384Z,97926.17
2023-03-06T12:11:22.825Z,97925.80
2023-03-06T12:14:11.770Z,97921.42
2023-03-06T12:16:45.627Z,97926.77
2023-03-06T12:19:33.001Z,97922.13
2023-03-06T12:22:36.306Z,97928.52
2023-03-06T12:25:06.539Z,97927.53
2023-03-06T12:27:49.341Z,97925.69
2023-03-06T12:30:38.204Z,97928.92
2023-03-06T12:33:31.696Z,97923.89
2023-03-06T12:36:08.258Z,97926.39
2023-03-06T12:38:55.190Z,97931.14
2023-03-06T12:41:24.046Z,97921.47
2023-03-06T12:43:54.363Z,97923.47
2023-03-06T12:46:24.703Z,97923.80
2023-03-06T12:49:01.933Z,97924.70
2023-03-06T12:51:29.121Z,97921.55
2023-03-06T12:53:57.092Z,97914.33
2023-03-06T12:56:23.948Z,97915.42
2023-03-06T12:58:55.802Z,97914.77
2023-03-06T13:02:13.931Z,97906.73
2023-03-06T13:05:03.107Z,97908.20
2023-03-06T13:07:36.912Z,97905.38
2023-03-06T13:10:27.880Z,97904.02
2023-03-06T13:13:04.728Z,97902.11
2023-03-06T13:15:48.944Z,97903.67
2023-03-06T13:18:22.453Z,97906.29
2023-03-06T13:20:54.830Z,97905.92
2023-03-06T13:23:34.982Z,97905.46
2023-03-06T13:26:24.552Z,97907.75
2023-03-06T13:28:53.546Z,97909.69
2023-03-06T13:31:33.257Z,97914.66
2023-03-06T13:34:09.060Z,97917.60
2023-03-06T13:36:39.482Z,97922.55
2023-03-06T13:39:11.134Z,97917.83
2023-03-06T13:41:42.363Z,97920.59
2023-03-06T13:44:25.194Z,97907.60
2023-03-06T13:46:59.652Z,97909.81
2023-03-06T13:49:27.613Z,97911.22
2023-03-06T13:51:54.957Z,97911.02
2023-03-06T13:54:29.055Z,97910.38
2023-03-06T13:57:22.093Z,97911.19
2023-03-06T13:59:59.599Z,97916.78
2023-03-06T14:02:54.543Z,97904.20
2023-03-06T14:05:22.361Z,97910.83
2023-03-06T14:08:25.630Z,97903.67
2023-03-06T14:11:08.250Z,97901.70
2023-03-06T14:13:47.565Z,97908.52
2023-03-06T14:16:37.578Z,97910.02
2023-03-06T14:19:16.095Z,97908.87
2023-03-06T14:21:55.234Z,97905.63
2023-03-06T14:24:34.872Z,97907.02
2023-03-06T14:27:02.322Z,97907.91
2023-03-06T14:29:30.326Z,97908.00
2023-03-06T14:31:58.766Z,97906.22
2023-03-06T14:34:28.080Z,97908.90
2023-03-06T14:37:01.094Z,97906.27
2023-03-06T14:39:41.964Z,97907.04
2023-03-06T14:42:17.601Z,97908.42
2023-03-06T14:44:45.968Z,97904.50
2023-03-06T14:47:29.298Z,97904.46
2023-03-06T14:50:18.972Z,97904.40
2023-03-06T14:52:45.911Z,97899.09
2023-03-06T14:55:21.045Z,97906.12
2023-03-06T14:58:11.568Z,97909.48
2023-03-06T15:00:41.351Z,97905.27
2023-03-06T15:03:24.065Z,97902.04
2023-03-06T15:05:51.322Z,97905.30
2023-03-06T15:08:24.926Z,97900.78
2023-03-06T15:11:00.990Z,97903.52
2023-03-06T15:13:32.440Z,97902.02
2023-03-06T15:16:00.850Z,97900.05
2023-03-06T15:18:38.428Z,97896.80
2023-03-06T15:21:20.019Z,97894.06
2023-03-06T15:23:48.466Z,97893.99
2023-03-06T15:26:28.049Z,97898.34
2023-03-06T15:29:08.312Z,97899.27
2023-03-06T15:31:38.515Z,97898.96
2023-03-06T15:34:06.040Z,97897.00
2023-03-06T15:36:34.641Z,97897.94
2023-03-06T15:39:01.918Z,97899.46
2023-03-06T15:41:35.350Z,97902.48
2023-03-06T15:44:12.675Z,97902.20
2023-03-06T15:46:40.427Z,97903.21
2023-03-06T15:49:16.795Z,97902.75
2023-03-06T15:51:44.149Z,97896.97
2023-03-06T15:54:12.654Z,97893.42
2023-03-06T15:56:41.783Z,97890.58
2023-03-06T15:59:22.850Z,97896.56
2023-03-06T16:01:54.364Z,97902.46
2023-03-06T16:04:22.153Z,97903.55
2023-03-06T16:06:49.822Z,97899.28
2023-03-06T16:09:17.347Z,97903.80
2023-03-06T16:11:46.847Z,97905.64
2023-03-06T16:14:19.625Z,97909.40
2023-03-06T16:16:47.212Z,97905.24
2023-03-06T16:19:25.286Z,97907.48
2023-03-06T16:21:54.094Z,97910.04
2023-03-06T16:24:21.346Z,97906.02
2023-03-06T16:26:52.062Z,97909.20
2023-03-06T16:29:22.080Z,97908.88
2023-03-06T16:31:49.539Z,97909.34
2023-03-06T16:34:21.294Z,97909.89
2023-03-06T16:36:49.705Z,97909.38
2023-03-06T16:39:18.472Z,97916.40
2023-03-06T16:41:48.987Z,97911.84
2023-03-06T16:44:16.241Z,97915.45
2023-03-06T16:46:45.430Z,97917.01
2023-03-06T16:49:17.140Z,97916.16
2023-03-06T16:51:44.859Z,97911.91
2023-03-06T16:54:12.208Z,97911.95
2023-03-06T16:56:39.353Z,97912.53
2023-03-06T16:59:11.406Z,97909.70
2023-03-06T17:01:39.935Z,97909.60
2023-03-06T17:04:07.650Z,97906.58
2023-03-06T17:06:38.120Z,97904.27
2023-03-06T17:09:05.656Z,97902.21
2023-03-06T17:11:32.900Z,97901.81
2023-03-06T17:14:01.694Z,97902.33
2023-03-06T17:16:29.147Z,97898.33
2023-03-06T17:18:57.939Z,97896.08
2023-03-06T17:21:26.524Z,97888.82
2023-03-06T17:23:54.181Z,97889.24
2023-03-06T17:26:25.682Z,97886.97
2023-03-06T17:28:53.905Z,97885.76
2023-03-06T17:31:22.782Z,97885.70
2023-03-06T17:33:51.174Z,97880.89
2023-03-06T17:36:18.838Z,97877.63
2023-03-06T17:38:46.758Z,97881.91
2023-03-06T17:41:13.990Z,97885.08
2023-03-06T17:43:41.103Z,97884.36
2023-03-06T17:46:10.170Z,97883.00
2023-03-06T17:48:37.654Z,97881.45
2023-03-06T17:51:06.946Z,97879.17
2023-03-06T17:53:34.416Z,97880.13
2023-03-06T17:56:11.072Z,97881.38
2023-03-06T17:58:39.479Z,97877.77
2023-03-06T18:01:11.342Z,97876.59
2023-03-06T18:03:38.878Z,97879.01
2023-03-06T18:06:08.996Z,97878.41
2023-03-06T18:08:43.525Z,97878.30
2023-03-06T18:11:10.984Z,97878.91
2023-03-06T18:13:39.763Z,97882.65
2023-03-06T18:16:08.952Z,97880.39
2023-03-06T18:18:37.251Z,97879.38
2023-03-06T18:21:09.204Z,97877.34
2023-03-06T18:23:40.458Z,97881.55
2023-03-06T18:26:12.103Z,97882.27
2023-03-06T18:28:43.816Z,97881.85
2023-03-06T18:31:18.307Z,97874.73
2023-03-06T18:33:50.749Z,97874.52
2023-03-06T18:36:18.012Z,97875.77
2023-03-06T18:38:45.670Z,97873.36
2023-03-06T18:41:13.152Z,97871.20
2023-03-06T18:43:43.857Z,97867.88
2023-03-06T18:46:11.100Z,97866.06
2023-03-06T18:48:38.256Z,97864.23
2023-03-06T18:51:08.897Z,97863.96
2023-03-06T18:53:39.825Z,97859.73
2023-03-06T18:56:08.250Z,97864.83
2023-03-06T18:58:36.697Z,97861.17
2023-03-06T19:01:08.069Z,97858.50
2023-03-06T19:03:37.975Z,97861.64
2023-03-06T19:06:07.880Z,97865.74
2023-03-06T19:08:35.832Z,97866.54
2023-03-06T19:11:05.864Z,97865.48
2023-03-06T19:13:33.615Z,97868.81
2023-03-06T19:16:01.332Z,97866.48
2023-03-06T19:18:34.064Z,97862.34
2023-03-06T19:21:13.704Z,97860.85
2023-03-06T19:23:41.273Z,97858.60
2023-03-06T19:26:08.615Z,97858.97
2023-03-06T19:28:37.104Z,97854.11
2023-03-06T19:31:12.752Z,97850.67
2023-03-06T19:33:41.341Z,97850.23
2023-03-06T19:36:10.081Z,97849.91
2023-03-06T19:38:38.603Z,97847.07
2023-03-06T19:41:11.233Z,97845.20
2023-03-06T19:43:40.496Z,97843.82
2023-03-06T19:46:14.147Z,97842.05
2023-03-06T19:48:42.058Z,97839.59
2023-03-06T19:51:10.028Z,97834.70
2023-03-06T19:53:39.625Z,97840.08
2023-03-06T19:56:09.128Z,97835.08
2023-03-06T19:58:36.799Z,97832.43
2023-03-06T20:01:09.719Z,97830.33
2023-03-06T20:03:36.923Z,97829.27
2023-03-06T20:06:08.702Z,97824.17
2023-03-06T20:08:43.000Z,97821.17
2023-03-06T20:11:20.799Z,97822.40
2023-03-06T20:13:48.262Z,97823.05
2023-03-06T20:16:16.547Z,97821.53
2023-03-06T20:18:46.603Z,97820.73
2023-03-06T20:21:14.206Z,97819.83
2023-03-06T20:23:41.583Z,97815.13
2023-03-06T20:26:11.389Z,97813.98
2023-03-06T20:28:39.957Z,97817.11
2023-03-06T20:31:08.199Z,97813.40
2023-03-06T20:33:36.293Z,97807.52
2023-03-06T20:36:04.353Z,97808.92
2023-03-06T20:38:36.015Z,97808.66
2023-03-06T20:41:03.519Z,97805.96
2023-03-06T20:43:31.259Z,97802.44
2023-03-06T20:46:02.669Z,97801.80
2023-03-06T20:48:29.840Z,97803.15
2023-03-06T20:50:59.648Z,97797.91
2023-03-06T20:53:26.814Z,97799.02
2023-03-06T20:55:55.747Z,97795.91
2023-03-06T20:58:25.401Z,97794.46
2023-03-06T21:00:57.672Z,97790.10
2023-03-06T21:03:44.583Z,97788.33
2023-03-06T21:06:12.147Z,97787.21
2023-03-06T21:08:39.211Z,97789.98
2023-03-06T21:11:06.342Z,97785.55
2023-03-06T21:13:34.251Z,97786.65
2023-03-06T21:16:10.015Z,97784.20
2023-03-06T21:18:37.312Z,97782.11
2023-03-06T21:21:08.458Z,97783.86
2023-03-06T21:23:36.542Z,97781.58
2023-03-06T21:26:06.154Z,97780.13
2023-03-06T21:28:34.048Z,97777.13
2023-03-06T21:31:01.494Z,97778.44
2023-03-06T21:33:29.430Z,97772.60
2023-03-06T21:35:56.639Z,97770.83
2023-03-06T21:38:25.986Z,97771.45
2023-03-06T21:40:55.345Z,97766.48
2023-03-06T21:43:22.757Z,97765.55
2023-03-06T21:45:52.262Z,97758.45
2023-03-06T21:48:19.331Z,97764.45
2023-03-06T21:50:46.435Z,97762.46
2023-03-06T21:53:14.820Z,97766.11
2023-03-06T21:55:41.966Z,97762.91
2023-03-06T21:58:10.548Z,97761.42
2023-03-06T22:00:38.015Z,97758.38
2023-03-06T22:03:06.079Z,97753.69
2023-03-06T22:05:33.634Z,97754.52
2023-03-06T22:08:01.627Z,97754.45
2023-03-06T22:10:28.955Z,97753.61
2023-03-06T22:12:57.334Z,97754.59
2023-03-06T22:15:29.075Z,97747.48
2023-03-06T22:17:58.495Z,97751.27
2023-03-06T22:20:25.820Z,97748.48
2023-03-06T22:22:56.787Z,97749.02
2023-03-06T22:25:24.038Z,97748.61
2023-03-06T22:27:51.123Z,97747.20
2023-03-06T22:30:18.538Z,97743.50
2023-03-06T22:32:45.925Z,97741.26
2023-03-06T22:35:14.371Z,97739.48
2023-03-06T22:37:43.771Z,97737.09
2023-03-06T22:40:12.560Z,97731.29
2023-03-06T22:42:42.081Z,97732.95
2023-03-06T22:45:12.287Z,97731.45
2023-03-06T22:47:39.743Z,97734.89
2023-03-06T22:50:07.847Z,97732.58
2023-03-06T22:52:35.063Z,97726.98
2023-03-06T22:55:07.544Z,97721.77
2023-03-06T22:57:34.969Z,97719.65
2023-03-06T23:00:02.286Z,97716.25
2023-03-06T23:02:34.727Z,97714.26
2023-03-06T23:05:01.571Z,97710.95
2023-03-06T23:07:34.171Z,97709.35
2023-03-06T23:10:01.315Z,97707.58
2023-03-06T23:12:47.696Z,97705.39
2023-03-06T23:15:34.942Z,97707.36
2023-03-06T23:18:21.933Z,97710.23
2023-03-06T23:21:09.472Z,97707.41
2023-03-06T23:23:57.021Z,97702.73
2023-03-06T23:26:25.569Z,97698.69
2023-03-06T23:28:52.928Z,97694.18
2023-03-06T23:31:23.198Z,97695.31
2023-03-06T23:33:50.604Z,97689.01
2023-03-06T23:36:19.445Z,97686.65
2023-03-06T23:38:46.671Z,97688.60
2023-03-06T23:41:15.616Z,97691.52
2023-03-06T23:43:43.808Z,97689.79
2023-03-06T23:46:10.840Z,97688.86
2023-03-06T23:48:39.135Z,97686.75
2023-03-06T23:51:12.153Z,97680.23
2023-03-06T23:53:40.881Z,97679.60
2023-03-06T23:56:09.281Z,97674.80
2023-03-06T23:58:36.658Z,97675.83
